sensor_id;sensor_type;location;lat;lon;timestamp;P1;durP1;ratioP1;P2;durP2;ratioP2
57087;SDS011;42965;52.846;6.614;2023-03-21T00:02:14;72.57;;;31.60;;
57087;SDS011;42965;52.846;6.614;2023-03-21T00:04:41;74.65;;;32.85;;
57087;SDS011;42965;52.846;6.614;2023-03-21T00:07:07;71.45;;;31.92;;
57087;SDS011;42965;52.846;6.614;2023-03-21T00:09:34;60.15;;;30.83;;
57087;SDS011;42965;52.846;6.614;2023-03-21T00:12:00;65.65;;;30.02;;
57087;SDS011;42965;52.846;6.614;2023-03-21T00:14:27;63.88;;;31.85;;
57087;SDS011;42965;52.846;6.614;2023-03-21T00:16:55;63.75;;;31.60;;
57087;SDS011;42965;52.846;6.614;2023-03-21T00:19:22;64.05;;;31.33;;
57087;SDS011;42965;52.846;6.614;2023-03-21T00:21:51;66.78;;;32.35;;
57087;SDS011;42965;52.846;6.614;2023-03-21T00:24:18;68.20;;;31.27;;
57087;SDS011;42965;52.846;6.614;2023-03-21T00:26:46;58.42;;;30.77;;
57087;SDS011;42965;52.846;6.614;2023-03-21T00:29:13;58.05;;;28.42;;
57087;SDS011;42965;52.846;6.614;2023-03-21T00:31:39;61.65;;;29.45;;
57087;SDS011;42965;52.846;6.614;2023-03-21T00:34:05;50.30;;;26.83;;
57087;SDS011;42965;52.846;6.614;2023-03-21T00:36:31;54.33;;;28.90;;
57087;SDS011;42965;52.846;6.614;2023-03-21T00:38:59;51.42;;;26.35;;
57087;SDS011;42965;52.846;6.614;2023-03-21T00:41:25;51.15;;;27.77;;
57087;SDS011;42965;52.846;6.614;2023-03-21T00:43:52;50.83;;;25.85;;
57087;SDS011;42965;52.846;6.614;2023-03-21T00:46:19;54.28;;;27.85;;
57087;SDS011;42965;52.846;6.614;2023-03-21T00:48:46;57.03;;;29.08;;
57087;SDS011;42965;52.846;6.614;2023-03-21T00:51:19;60.13;;;29.40;;
57087;SDS011;42965;52.846;6.614;2023-03-21T00:53:55;52.47;;;27.20;;
57087;SDS011;42965;52.846;6.614;2023-03-21T00:56:26;54.88;;;29.27;;
57087;SDS011;42965;52.846;6.614;2023-03-21T00:58:52;58.30;;;28.83;;
57087;SDS011;42965;52.846;6.614;2023-03-21T01:01:18;53.03;;;29.88;;
57087;SDS011;42965;52.846;6.614;2023-03-21T01:03:45;63.75;;;32.25;;
57087;SDS011;42965;52.846;6.614;2023-03-21T01:06:16;59.00;;;29.48;;
57087;SDS011;42965;52.846;6.614;2023-03-21T01:08:47;50.05;;;27.17;;
57087;SDS011;42965;52.846;6.614;2023-03-21T01:11:15;50.58;;;27.35;;
57087;SDS011;42965;52.846;6.614;2023-03-21T01:13:43;54.65;;;27.60;;
57087;SDS011;42965;52.846;6.614;2023-03-21T01:16:10;55.45;;;28.40;;
57087;SDS011;42965;52.846;6.614;2023-03-21T01:18:37;48.63;;;27.05;;
57087;SDS011;42965;52.846;6.614;2023-03-21T01:21:06;59.05;;;29.52;;
57087;SDS011;42965;52.846;6.614;2023-03-21T01:23:35;53.75;;;27.70;;
57087;SDS011;42965;52.846;6.614;2023-03-21T01:26:02;54.95;;;28.63;;
57087;SDS011;42965;52.846;6.614;2023-03-21T01:28:29;53.78;;;29.60;;
57087;SDS011;42965;52.846;6.614;2023-03-21T01:30:55;60.35;;;31.38;;
57087;SDS011;42965;52.846;6.614;2023-03-21T01:33:22;58.20;;;30.38;;
57087;SDS011;42965;52.846;6.614;2023-03-21T01:35:48;64.53;;;31.83;;
57087;SDS011;42965;52.846;6.614;2023-03-21T01:38:15;56.90;;;29.75;;
57087;SDS011;42965;52.846;6.614;2023-03-21T01:40:44;65.72;;;32.38;;
57087;SDS011;42965;52.846;6.614;2023-03-21T01:43:34;70.90;;;31.77;;
57087;SDS011;42965;52.846;6.614;2023-03-21T01:49:42;58.58;;;32.30;;
57087;SDS011;42965;52.846;6.614;2023-03-21T01:52:31;55.63;;;29.85;;
57087;SDS011;42965;52.846;6.614;2023-03-21T01:57:41;60.83;;;29.95;;
57087;SDS011;42965;52.846;6.614;2023-03-21T02:00:23;65.13;;;31.50;;
57087;SDS011;42965;52.846;6.614;2023-03-21T02:03:02;67.53;;;32.90;;
57087;SDS011;42965;52.846;6.614;2023-03-21T02:05:55;71.07;;;34.70;;
57087;SDS011;42965;52.846;6.614;2023-03-21T02:08:32;69.45;;;34.85;;
57087;SDS011;42965;52.846;6.614;2023-03-21T02:11:03;70.97;;;35.38;;
57087;SDS011;42965;52.846;6.614;2023-03-21T02:13:37;73.80;;;34.63;;
57087;SDS011;42965;52.846;6.614;2023-03-21T02:19:28;71.32;;;33.95;;
57087;SDS011;42965;52.846;6.614;2023-03-21T02:28:02;65.07;;;30.58;;
57087;SDS011;42965;52.846;6.614;2023-03-21T02:30:44;64.47;;;31.13;;
57087;SDS011;42965;52.846;6.614;2023-03-21T02:41:49;67.88;;;32.03;;
57087;SDS011;42965;52.846;6.614;2023-03-21T02:44:43;69.28;;;31.25;;
57087;SDS011;42965;52.846;6.614;2023-03-21T02:47:33;57.20;;;28.38;;
57087;SDS011;42965;52.846;6.614;2023-03-21T02:50:02;58.35;;;27.85;;
57087;SDS011;42965;52.846;6.614;2023-03-21T02:52:35;59.42;;;26.92;;
57087;SDS011;42965;52.846;6.614;2023-03-21T02:55:03;50.30;;;26.00;;
57087;SDS011;42965;52.846;6.614;2023-03-21T02:57:43;53.80;;;26.27;;
57087;SDS011;42965;52.846;6.614;2023-03-21T03:00:20;52.45;;;28.13;;
57087;SDS011;42965;52.846;6.614;2023-03-21T03:02:53;50.30;;;25.67;;
57087;SDS011;42965;52.846;6.614;2023-03-21T03:05:21;44.35;;;24.08;;
57087;SDS011;42965;52.846;6.614;2023-03-21T03:21:44;53.42;;;25.38;;
57087;SDS011;42965;52.846;6.614;2023-03-21T03:24:19;44.38;;;22.75;;
57087;SDS011;42965;52.846;6.614;2023-03-21T03:26:52;51.53;;;24.10;;
57087;SDS011;42965;52.846;6.614;2023-03-21T03:29:26;50.40;;;24.90;;
57087;SDS011;42965;52.846;6.614;2023-03-21T03:31:56;45.88;;;22.35;;
57087;SDS011;42965;52.846;6.614;2023-03-21T03:34:31;46.15;;;24.98;;
57087;SDS011;42965;52.846;6.614;2023-03-21T03:37:05;45.00;;;24.13;;
57087;SDS011;42965;52.846;6.614;2023-03-21T03:39:40;51.58;;;23.98;;
57087;SDS011;42965;52.846;6.614;2023-03-21T03:42:13;42.72;;;23.85;;
57087;SDS011;42965;52.846;6.614;2023-03-21T03:45:05;45.00;;;23.52;;
57087;SDS011;42965;52.846;6.614;2023-03-21T03:48:16;42.15;;;24.13;;
57087;SDS011;42965;52.846;6.614;2023-03-21T03:50:33;42.25;;;25.48;;
57087;SDS011;42965;52.846;6.614;2023-03-21T03:53:22;39.33;;;23.77;;
57087;SDS011;42965;52.846;6.614;2023-03-21T03:55:55;42.85;;;24.55;;
57087;SDS011;42965;52.846;6.614;2023-03-21T03:58:23;40.60;;;25.63;;
57087;SDS011;42965;52.846;6.614;2023-03-21T04:00:54;35.72;;;22.50;;
57087;SDS011;42965;52.846;6.614;2023-03-21T04:03:21;44.47;;;25.90;;
57087;SDS011;42965;52.846;6.614;2023-03-21T04:05:48;39.80;;;24.75;;
57087;SDS011;42965;52.846;6.614;2023-03-21T04:08:15;44.20;;;25.10;;
57087;SDS011;42965;52.846;6.614;2023-03-21T04:10:45;38.38;;;24.40;;
57087;SDS011;42965;52.846;6.614;2023-03-21T04:13:12;46.45;;;25.13;;
57087;SDS011;42965;52.846;6.614;2023-03-21T04:15:47;44.78;;;24.33;;
57087;SDS011;42965;52.846;6.614;2023-03-21T04:18:15;42.80;;;25.30;;
57087;SDS011;42965;52.846;6.614;2023-03-21T04:20:42;40.40;;;24.77;;
57087;SDS011;42965;52.846;6.614;2023-03-21T04:23:10;43.88;;;24.45;;
57087;SDS011;42965;52.846;6.614;2023-03-21T04:25:41;51.83;;;25.27;;
57087;SDS011;42965;52.846;6.614;2023-03-21T04:28:07;46.10;;;25.70;;
57087;SDS011;42965;52.846;6.614;2023-03-21T04:30:37;48.58;;;25.55;;
57087;SDS011;42965;52.846;6.614;2023-03-21T04:33:12;46.95;;;26.88;;
57087;SDS011;42965;52.846;6.614;2023-03-21T04:35:43;46.20;;;24.92;;
57087;SDS011;42965;52.846;6.614;2023-03-21T04:38:11;44.25;;;27.25;;
57087;SDS011;42965;52.846;6.614;2023-03-21T04:40:38;42.25;;;27.10;;
57087;SDS011;42965;52.846;6.614;2023-03-21T04:43:05;40.95;;;26.08;;
57087;SDS011;42965;52.846;6.614;2023-03-21T04:45:35;43.15;;;27.80;;
57087;SDS011;42965;52.846;6.614;2023-03-21T04:48:01;45.15;;;27.95;;
57087;SDS011;42965;52.846;6.614;2023-03-21T04:50:29;43.63;;;28.70;;
57087;SDS011;42965;52.846;6.614;2023-03-21T04:52:58;46.22;;;29.33;;
57087;SDS011;42965;52.846;6.614;2023-03-21T04:55:25;43.63;;;28.38;;
57087;SDS011;42965;52.846;6.614;2023-03-21T04:57:53;50.55;;;29.27;;
57087;SDS011;42965;52.846;6.614;2023-03-21T05:00:21;43.45;;;28.05;;
57087;SDS011;42965;52.846;6.614;2023-03-21T05:02:48;45.70;;;29.40;;
57087;SDS011;42965;52.846;6.614;2023-03-21T05:05:14;41.47;;;27.88;;
57087;SDS011;42965;52.846;6.614;2023-03-21T05:07:40;48.55;;;29.35;;
57087;SDS011;42965;52.846;6.614;2023-03-21T05:10:07;50.88;;;31.15;;
57087;SDS011;42965;52.846;6.614;2023-03-21T05:12:38;46.65;;;30.45;;
57087;SDS011;42965;52.846;6.614;2023-03-21T05:15:04;53.60;;;31.85;;
57087;SDS011;42965;52.846;6.614;2023-03-21T05:17:31;47.83;;;30.17;;
57087;SDS011;42965;52.846;6.614;2023-03-21T05:19:58;48.45;;;29.58;;
57087;SDS011;42965;52.846;6.614;2023-03-21T05:22:24;57.15;;;33.78;;
57087;SDS011;42965;52.846;6.614;2023-03-21T05:24:53;63.58;;;35.78;;
57087;SDS011;42965;52.846;6.614;2023-03-21T05:27:30;66.15;;;35.75;;
57087;SDS011;42965;52.846;6.614;2023-03-21T05:30:10;66.03;;;36.00;;
57087;SDS011;42965;52.846;6.614;2023-03-21T05:32:39;67.75;;;38.03;;
57087;SDS011;42965;52.846;6.614;2023-03-21T05:35:08;71.30;;;37.97;;
57087;SDS011;42965;52.846;6.614;2023-03-21T05:37:36;81.10;;;41.92;;
57087;SDS011;42965;52.846;6.614;2023-03-21T05:40:05;73.75;;;39.42;;
57087;SDS011;42965;52.846;6.614;2023-03-21T05:42:35;69.25;;;37.60;;
57087;SDS011;42965;52.846;6.614;2023-03-21T05:45:11;76.53;;;42.70;;
57087;SDS011;42965;52.846;6.614;2023-03-21T05:47:38;74.53;;;41.40;;
57087;SDS011;42965;52.846;6.614;2023-03-21T05:50:04;74.20;;;41.75;;
57087;SDS011;42965;52.846;6.614;2023-03-21T05:52:32;69.93;;;41.47;;
57087;SDS011;42965;52.846;6.614;2023-03-21T05:55:02;81.18;;;44.10;;
57087;SDS011;42965;52.846;6.614;2023-03-21T05:57:30;80.35;;;42.80;;
57087;SDS011;42965;52.846;6.614;2023-03-21T06:00:03;81.15;;;44.20;;
57087;SDS011;42965;52.846;6.614;2023-03-21T06:02:41;91.35;;;45.85;;
57087;SDS011;42965;52.846;6.614;2023-03-21T06:05:29;81.30;;;43.65;;
57087;SDS011;42965;52.846;6.614;2023-03-21T06:07:56;82.10;;;45.05;;
57087;SDS011;42965;52.846;6.614;2023-03-21T06:10:23;85.10;;;44.95;;
57087;SDS011;42965;52.846;6.614;2023-03-21T06:12:52;79.05;;;42.38;;
57087;SDS011;42965;52.846;6.614;2023-03-21T06:15:27;87.82;;;44.15;;
57087;SDS011;42965;52.846;6.614;2023-03-21T06:18:03;87.45;;;45.00;;
57087;SDS011;42965;52.846;6.614;2023-03-21T06:20:30;85.97;;;44.17;;
57087;SDS011;42965;52.846;6.614;2023-03-21T06:23:05;86.63;;;43.78;;
57087;SDS011;42965;52.846;6.614;2023-03-21T06:25:31;90.72;;;44.05;;
57087;SDS011;42965;52.846;6.614;2023-03-21T06:27:57;72.55;;;40.92;;
57087;SDS011;42965;52.846;6.614;2023-03-21T06:30:24;74.32;;;38.92;;
57087;SDS011;42965;52.846;6.614;2023-03-21T06:33:03;79.15;;;41.88;;
57087;SDS011;42965;52.846;6.614;2023-03-21T06:35:30;76.38;;;40.70;;
57087;SDS011;42965;52.846;6.614;2023-03-21T06:37:56;74.88;;;40.55;;
57087;SDS011;42965;52.846;6.614;2023-03-21T06:40:24;67.45;;;38.28;;
57087;SDS011;42965;52.846;6.614;2023-03-21T06:42:51;58.45;;;36.55;;
57087;SDS011;42965;52.846;6.614;2023-03-21T06:45:18;55.60;;;35.08;;
57087;SDS011;42965;52.846;6.614;2023-03-21T06:47:45;56.97;;;34.13;;
57087;SDS011;42965;52.846;6.614;2023-03-21T06:50:23;56.80;;;31.25;;
57087;SDS011;42965;52.846;6.614;2023-03-21T06:52:49;53.22;;;31.20;;
57087;SDS011;42965;52.846;6.614;2023-03-21T06:55:16;47.17;;;28.17;;
57087;SDS011;42965;52.846;6.614;2023-03-21T06:57:44;42.47;;;27.55;;
57087;SDS011;42965;52.846;6.614;2023-03-21T07:00:11;41.00;;;25.95;;
57087;SDS011;42965;52.846;6.614;2023-03-21T07:02:42;31.17;;;22.98;;
57087;SDS011;42965;52.846;6.614;2023-03-21T07:05:13;34.83;;;24.75;;
57087;SDS011;42965;52.846;6.614;2023-03-21T07:07:41;34.63;;;22.63;;
57087;SDS011;42965;52.846;6.614;2023-03-21T07:10:07;32.83;;;21.75;;
57087;SDS011;42965;52.846;6.614;2023-03-21T07:12:45;31.40;;;21.42;;
57087;SDS011;42965;52.846;6.614;2023-03-21T07:15:19;29.52;;;21.55;;
57087;SDS011;42965;52.846;6.614;2023-03-21T07:17:46;29.45;;;21.90;;
57087;SDS011;42965;52.846;6.614;2023-03-21T07:20:12;27.08;;;21.23;;
57087;SDS011;42965;52.846;6.614;2023-03-21T07:22:38;28.50;;;21.88;;
57087;SDS011;42965;52.846;6.614;2023-03-21T07:25:06;29.45;;;21.95;;
57087;SDS011;42965;52.846;6.614;2023-03-21T07:27:37;34.20;;;22.10;;
57087;SDS011;42965;52.846;6.614;2023-03-21T07:30:04;34.13;;;22.23;;
57087;SDS011;42965;52.846;6.614;2023-03-21T07:32:32;32.88;;;23.83;;
57087;SDS011;42965;52.846;6.614;2023-03-21T07:34:59;33.78;;;24.05;;
57087;SDS011;42965;52.846;6.614;2023-03-21T07:37:26;36.50;;;24.33;;
57087;SDS011;42965;52.846;6.614;2023-03-21T07:39:53;36.80;;;25.63;;
57087;SDS011;42965;52.846;6.614;2023-03-21T07:42:22;35.63;;;25.02;;
57087;SDS011;42965;52.846;6.614;2023-03-21T07:44:48;36.22;;;25.85;;
57087;SDS011;42965;52.846;6.614;2023-03-21T07:47:16;33.92;;;25.95;;
57087;SDS011;42965;52.846;6.614;2023-03-21T07:49:46;37.67;;;26.88;;
57087;SDS011;42965;52.846;6.614;2023-03-21T07:52:12;37.33;;;26.98;;
57087;SDS011;42965;52.846;6.614;2023-03-21T07:54:38;38.25;;;26.05;;
57087;SDS011;42965;52.846;6.614;2023-03-21T07:57:05;39.25;;;27.13;;
57087;SDS011;42965;52.846;6.614;2023-03-21T07:59:31;37.58;;;28.25;;
57087;SDS011;42965;52.846;6.614;2023-03-21T08:01:58;35.88;;;26.33;;
57087;SDS011;42965;52.846;6.614;2023-03-21T08:04:24;35.20;;;24.10;;
57087;SDS011;42965;52.846;6.614;2023-03-21T08:06:53;36.10;;;26.20;;
57087;SDS011;42965;52.846;6.614;2023-03-21T08:09:19;36.33;;;26.48;;
57087;SDS011;42965;52.846;6.614;2023-03-21T08:11:46;35.63;;;25.77;;
57087;SDS011;42965;52.846;6.614;2023-03-21T08:14:12;35.35;;;25.25;;
57087;SDS011;42965;52.846;6.614;2023-03-21T08:16:38;37.33;;;26.38;;
57087;SDS011;42965;52.846;6.614;2023-03-21T08:19:04;35.65;;;26.90;;
57087;SDS011;42965;52.846;6.614;2023-03-21T08:21:30;39.35;;;27.13;;
57087;SDS011;42965;52.846;6.614;2023-03-21T08:23:57;36.05;;;28.15;;
57087;SDS011;42965;52.846;6.614;2023-03-21T08:26:23;40.28;;;27.90;;
57087;SDS011;42965;52.846;6.614;2023-03-21T08:28:54;37.60;;;27.60;;
57087;SDS011;42965;52.846;6.614;2023-03-21T08:31:21;35.08;;;24.88;;
57087;SDS011;42965;52.846;6.614;2023-03-21T08:33:47;30.80;;;23.13;;
57087;SDS011;42965;52.846;6.614;2023-03-21T08:36:19;34.55;;;24.38;;
57087;SDS011;42965;52.846;6.614;2023-03-21T08:38:46;31.52;;;24.92;;
57087;SDS011;42965;52.846;6.614;2023-03-21T08:41:13;31.02;;;23.95;;
57087;SDS011;42965;52.846;6.614;2023-03-21T08:43:40;33.80;;;23.10;;
57087;SDS011;42965;52.846;6.614;2023-03-21T08:46:06;36.75;;;25.48;;
57087;SDS011;42965;52.846;6.614;2023-03-21T08:48:33;33.33;;;24.13;;
57087;SDS011;42965;52.846;6.614;2023-03-21T08:51:03;34.65;;;24.30;;
57087;SDS011;42965;52.846;6.614;2023-03-21T08:53:31;36.75;;;25.40;;
57087;SDS011;42965;52.846;6.614;2023-03-21T08:55:57;36.60;;;26.42;;
57087;SDS011;42965;52.846;6.614;2023-03-21T08:58:24;36.97;;;25.92;;
57087;SDS011;42965;52.846;6.614;2023-03-21T09:00:51;39.40;;;28.55;;
57087;SDS011;42965;52.846;6.614;2023-03-21T09:03:17;44.00;;;30.13;;
57087;SDS011;42965;52.846;6.614;2023-03-21T09:05:44;37.83;;;29.08;;
57087;SDS011;42965;52.846;6.614;2023-03-21T09:08:11;45.85;;;30.85;;
57087;SDS011;42965;52.846;6.614;2023-03-21T09:10:37;46.15;;;28.88;;
57087;SDS011;42965;52.846;6.614;2023-03-21T09:13:04;40.58;;;29.10;;
57087;SDS011;42965;52.846;6.614;2023-03-21T09:15:32;41.75;;;29.50;;
57087;SDS011;42965;52.846;6.614;2023-03-21T09:17:59;41.92;;;30.70;;
57087;SDS011;42965;52.846;6.614;2023-03-21T09:20:38;38.60;;;28.70;;
57087;SDS011;42965;52.846;6.614;2023-03-21T09:23:05;41.15;;;29.77;;
57087;SDS011;42965;52.846;6.614;2023-03-21T09:25:32;43.42;;;30.80;;
57087;SDS011;42965;52.846;6.614;2023-03-21T09:27:59;42.17;;;28.67;;
57087;SDS011;42965;52.846;6.614;2023-03-21T09:30:26;46.17;;;29.92;;
57087;SDS011;42965;52.846;6.614;2023-03-21T09:32:53;43.10;;;27.95;;
57087;SDS011;42965;52.846;6.614;2023-03-21T09:35:21;40.53;;;26.98;;
57087;SDS011;42965;52.846;6.614;2023-03-21T09:37:48;43.72;;;28.85;;
57087;SDS011;42965;52.846;6.614;2023-03-21T09:40:19;39.85;;;28.83;;
57087;SDS011;42965;52.846;6.614;2023-03-21T09:47:55;35.88;;;23.63;;
57087;SDS011;42965;52.846;6.614;2023-03-21T09:50:33;41.50;;;27.98;;
57087;SDS011;42965;52.846;6.614;2023-03-21T09:53:09;45.58;;;28.25;;
57087;SDS011;42965;52.846;6.614;2023-03-21T09:55:43;41.43;;;27.33;;
57087;SDS011;42965;52.846;6.614;2023-03-21T10:03:35;40.33;;;27.45;;
57087;SDS011;42965;52.846;6.614;2023-03-21T10:06:09;38.55;;;27.60;;
57087;SDS011;42965;52.846;6.614;2023-03-21T10:08:40;30.58;;;23.60;;
57087;SDS011;42965;52.846;6.614;2023-03-21T10:11:14;38.22;;;25.48;;
57087;SDS011;42965;52.846;6.614;2023-03-21T10:13:47;39.72;;;25.63;;
57087;SDS011;42965;52.846;6.614;2023-03-21T10:16:16;37.33;;;26.48;;
57087;SDS011;42965;52.846;6.614;2023-03-21T10:19:05;38.17;;;26.27;;
57087;SDS011;42965;52.846;6.614;2023-03-21T10:21:37;34.47;;;25.35;;
57087;SDS011;42965;52.846;6.614;2023-03-21T10:24:12;33.53;;;24.77;;
57087;SDS011;42965;52.846;6.614;2023-03-21T10:26:44;37.30;;;26.27;;
57087;SDS011;42965;52.846;6.614;2023-03-21T10:29:13;35.67;;;24.98;;
57087;SDS011;42965;52.846;6.614;2023-03-21T10:31:41;33.25;;;24.60;;
57087;SDS011;42965;52.846;6.614;2023-03-21T10:34:19;36.15;;;25.77;;
57087;SDS011;42965;52.846;6.614;2023-03-21T10:36:56;32.53;;;24.65;;
57087;SDS011;42965;52.846;6.614;2023-03-21T10:39:26;37.15;;;24.15;;
57087;SDS011;42965;52.846;6.614;2023-03-21T10:41:59;30.85;;;22.88;;
57087;SDS011;42965;52.846;6.614;2023-03-21T10:44:33;37.42;;;23.88;;
57087;SDS011;42965;52.846;6.614;2023-03-21T10:47:05;32.08;;;22.17;;
57087;SDS011;42965;52.846;6.614;2023-03-21T10:49:37;31.30;;;21.33;;
57087;SDS011;42965;52.846;6.614;2023-03-21T10:52:06;28.55;;;20.10;;
57087;SDS011;42965;52.846;6.614;2023-03-21T10:54:33;30.40;;;20.45;;
57087;SDS011;42965;52.846;6.614;2023-03-21T10:57:19;29.23;;;21.20;;
57087;SDS011;42965;52.846;6.614;2023-03-21T11:02:31;29.70;;;21.67;;
57087;SDS011;42965;52.846;6.614;2023-03-21T11:05:04;27.33;;;21.42;;
57087;SDS011;42965;52.846;6.614;2023-03-21T11:07:34;30.10;;;20.98;;
57087;SDS011;42965;52.846;6.614;2023-03-21T11:10:11;30.55;;;22.48;;
57087;SDS011;42965;52.846;6.614;2023-03-21T11:12:39;26.67;;;20.98;;
57087;SDS011;42965;52.846;6.614;2023-03-21T11:17:51;28.13;;;20.10;;
57087;SDS011;42965;52.846;6.614;2023-03-21T11:20:18;24.65;;;20.73;;
57087;SDS011;42965;52.846;6.614;2023-03-21T11:22:45;25.75;;;20.40;;
57087;SDS011;42965;52.846;6.614;2023-03-21T11:25:20;28.60;;;19.50;;
57087;SDS011;42965;52.846;6.614;2023-03-21T11:28:04;30.52;;;20.23;;
57087;SDS011;42965;52.846;6.614;2023-03-21T11:30:37;26.52;;;19.75;;
57087;SDS011;42965;52.846;6.614;2023-03-21T11:33:19;24.92;;;19.88;;
57087;SDS011;42965;52.846;6.614;2023-03-21T11:36:00;23.98;;;16.65;;
57087;SDS011;42965;52.846;6.614;2023-03-21T11:38:32;26.45;;;16.27;;
57087;SDS011;42965;52.846;6.614;2023-03-21T11:41:03;20.23;;;15.57;;
57087;SDS011;42965;52.846;6.614;2023-03-21T11:43:31;24.20;;;16.90;;
57087;SDS011;42965;52.846;6.614;2023-03-21T11:48:37;19.90;;;15.32;;
57087;SDS011;42965;52.846;6.614;2023-03-21T11:51:13;21.75;;;15.07;;
57087;SDS011;42965;52.846;6.614;2023-03-21T11:56:41;18.20;;;14.07;;
57087;SDS011;42965;52.846;6.614;2023-03-21T11:59:32;19.98;;;11.90;;
57087;SDS011;42965;52.846;6.614;2023-03-21T12:13:01;15.13;;;9.90;;
57087;SDS011;42965;52.846;6.614;2023-03-21T12:15:59;13.80;;;10.95;;
57087;SDS011;42965;52.846;6.614;2023-03-21T12:38:53;14.27;;;10.90;;
57087;SDS011;42965;52.846;6.614;2023-03-21T12:41:48;13.98;;;10.25;;
57087;SDS011;42965;52.846;6.614;2023-03-21T12:44:28;11.50;;;9.88;;
57087;SDS011;42965;52.846;6.614;2023-03-21T12:47:01;15.40;;;11.13;;
57087;SDS011;42965;52.846;6.614;2023-03-21T12:49:48;13.48;;;10.63;;
57087;SDS011;42965;52.846;6.614;2023-03-21T12:52:23;13.85;;;9.82;;
57087;SDS011;42965;52.846;6.614;2023-03-21T12:57:31;14.65;;;10.23;;
57087;SDS011;42965;52.846;6.614;2023-03-21T13:03:00;16.00;;;10.98;;
57087;SDS011;42965;52.846;6.614;2023-03-21T13:06:23;16.83;;;11.25;;
57087;SDS011;42965;52.846;6.614;2023-03-21T13:08:28;18.75;;;11.52;;
57087;SDS011;42965;52.846;6.614;2023-03-21T13:11:02;16.42;;;10.38;;
57087;SDS011;42965;52.846;6.614;2023-03-21T13:19:01;15.90;;;10.20;;
57087;SDS011;42965;52.846;6.614;2023-03-21T13:21:43;12.93;;;10.02;;
57087;SDS011;42965;52.846;6.614;2023-03-21T13:24:31;16.70;;;9.93;;
57087;SDS011;42965;52.846;6.614;2023-03-21T13:29:32;14.90;;;9.32;;
57087;SDS011;42965;52.846;6.614;2023-03-21T13:32:14;13.70;;;9.70;;
57087;SDS011;42965;52.846;6.614;2023-03-21T13:38:10;14.48;;;10.10;;
57087;SDS011;42965;52.846;6.614;2023-03-21T13:40:49;12.82;;;9.98;;
57087;SDS011;42965;52.846;6.614;2023-03-21T13:51:50;15.68;;;9.85;;
57087;SDS011;42965;52.846;6.614;2023-03-21T13:56:51;17.67;;;10.73;;
57087;SDS011;42965;52.846;6.614;2023-03-21T13:59:40;14.48;;;10.15;;
57087;SDS011;42965;52.846;6.614;2023-03-21T14:04:54;15.35;;;10.75;;
57087;SDS011;42965;52.846;6.614;2023-03-21T14:07:36;14.13;;;10.25;;
57087;SDS011;42965;52.846;6.614;2023-03-21T14:10:07;14.75;;;10.38;;
57087;SDS011;42965;52.846;6.614;2023-03-21T14:12:48;15.40;;;11.13;;
57087;SDS011;42965;52.846;6.614;2023-03-21T14:15:19;13.75;;;9.65;;
57087;SDS011;42965;52.846;6.614;2023-03-21T14:17:55;15.13;;;9.65;;
57087;SDS011;42965;52.846;6.614;2023-03-21T14:20:25;14.73;;;11.20;;
57087;SDS011;42965;52.846;6.614;2023-03-21T14:22:53;16.75;;;10.60;;
57087;SDS011;42965;52.846;6.614;2023-03-21T14:25:20;16.65;;;10.57;;
57087;SDS011;42965;52.846;6.614;2023-03-21T14:27:50;16.75;;;10.35;;
57087;SDS011;42965;52.846;6.614;2023-03-21T14:30:31;15.32;;;9.88;;
57087;SDS011;42965;52.846;6.614;2023-03-21T14:33:44;14.32;;;9.18;;
57087;SDS011;42965;52.846;6.614;2023-03-21T14:36:12;13.38;;;8.63;;
57087;SDS011;42965;52.846;6.614;2023-03-21T14:38:41;15.02;;;8.40;;
57087;SDS011;42965;52.846;6.614;2023-03-21T14:41:21;16.10;;;9.57;;
57087;SDS011;42965;52.846;6.614;2023-03-21T14:46:51;14.43;;;8.98;;
57087;SDS011;42965;52.846;6.614;2023-03-21T14:49:28;15.45;;;9.68;;
57087;SDS011;42965;52.846;6.614;2023-03-21T14:52:03;14.63;;;9.45;;
57087;SDS011;42965;52.846;6.614;2023-03-21T14:54:34;13.43;;;10.05;;
57087;SDS011;42965;52.846;6.614;2023-03-21T14:57:07;16.33;;;9.65;;
57087;SDS011;42965;52.846;6.614;2023-03-21T14:59:38;14.30;;;9.75;;
57087;SDS011;42965;52.846;6.614;2023-03-21T15:02:17;12.07;;;9.80;;
57087;SDS011;42965;52.846;6.614;2023-03-21T15:04:49;13.35;;;9.80;;
57087;SDS011;42965;52.846;6.614;2023-03-21T15:07:35;12.40;;;9.55;;
57087;SDS011;42965;52.846;6.614;2023-03-21T15:10:07;13.55;;;9.75;;
57087;SDS011;42965;52.846;6.614;2023-03-21T15:12:48;14.77;;;10.02;;
57087;SDS011;42965;52.846;6.614;2023-03-21T15:15:19;17.15;;;10.95;;
57087;SDS011;42965;52.846;6.614;2023-03-21T15:17:47;15.05;;;10.07;;
57087;SDS011;42965;52.846;6.614;2023-03-21T15:20:17;14.10;;;10.48;;
57087;SDS011;42965;52.846;6.614;2023-03-21T15:22:48;13.68;;;9.75;;
57087;SDS011;42965;52.846;6.614;2023-03-21T15:25:21;15.25;;;9.82;;
57087;SDS011;42965;52.846;6.614;2023-03-21T15:27:52;13.48;;;10.38;;
57087;SDS011;42965;52.846;6.614;2023-03-21T15:30:21;14.77;;;10.23;;
57087;SDS011;42965;52.846;6.614;2023-03-21T15:32:51;16.50;;;10.13;;
57087;SDS011;42965;52.846;6.614;2023-03-21T15:35:24;14.95;;;10.93;;
57087;SDS011;42965;52.846;6.614;2023-03-21T15:43:40;11.73;;;10.25;;
57087;SDS011;42965;52.846;6.614;2023-03-21T15:46:13;14.68;;;11.32;;
57087;SDS011;42965;52.846;6.614;2023-03-21T15:48:41;11.82;;;10.02;;
57087;SDS011;42965;52.846;6.614;2023-03-21T15:51:14;15.07;;;11.18;;
57087;SDS011;42965;52.846;6.614;2023-03-21T15:53:49;16.23;;;10.75;;
57087;SDS011;42965;52.846;6.614;2023-03-21T15:56:18;11.05;;;9.52;;
57087;SDS011;42965;52.846;6.614;2023-03-21T15:58:48;14.75;;;10.10;;
57087;SDS011;42965;52.846;6.614;2023-03-21T16:01:18;12.73;;;10.45;;
57087;SDS011;42965;52.846;6.614;2023-03-21T16:04:01;15.77;;;11.05;;
57087;SDS011;42965;52.846;6.614;2023-03-21T16:06:33;12.00;;;9.57;;
57087;SDS011;42965;52.846;6.614;2023-03-21T16:11:43;13.18;;;10.10;;
57087;SDS011;42965;52.846;6.614;2023-03-21T16:14:14;13.27;;;10.13;;
57087;SDS011;42965;52.846;6.614;2023-03-21T16:16:42;14.90;;;11.40;;
57087;SDS011;42965;52.846;6.614;2023-03-21T16:19:08;13.07;;;10.63;;
57087;SDS011;42965;52.846;6.614;2023-03-21T16:21:34;16.15;;;10.45;;
57087;SDS011;42965;52.846;6.614;2023-03-21T16:24:03;14.63;;;10.65;;
57087;SDS011;42965;52.846;6.614;2023-03-21T16:26:32;13.88;;;10.00;;
57087;SDS011;42965;52.846;6.614;2023-03-21T16:29:04;11.30;;;10.00;;
57087;SDS011;42965;52.846;6.614;2023-03-21T16:31:33;13.38;;;11.43;;
57087;SDS011;42965;52.846;6.614;2023-03-21T16:34:01;14.52;;;10.32;;
57087;SDS011;42965;52.846;6.614;2023-03-21T16:36:31;16.58;;;11.18;;
57087;SDS011;42965;52.846;6.614;2023-03-21T16:39:02;12.32;;;10.80;;
57087;SDS011;42965;52.846;6.614;2023-03-21T16:41:46;14.40;;;10.55;;
57087;SDS011;42965;52.846;6.614;2023-03-21T16:44:13;15.38;;;10.85;;
57087;SDS011;42965;52.846;6.614;2023-03-21T16:46:39;13.90;;;11.70;;
57087;SDS011;42965;52.846;6.614;2023-03-21T16:49:06;15.52;;;12.73;;
57087;SDS011;42965;52.846;6.614;2023-03-21T16:51:43;14.73;;;12.88;;
57087;SDS011;42965;52.846;6.614;2023-03-21T16:54:09;16.83;;;14.25;;
57087;SDS011;42965;52.846;6.614;2023-03-21T16:56:36;19.75;;;15.60;;
57087;SDS011;42965;52.846;6.614;2023-03-21T16:59:06;18.15;;;15.82;;
57087;SDS011;42965;52.846;6.614;2023-03-21T17:01:35;19.25;;;16.95;;